• Join FlightAware (Why Join?)
  • Login
  • US Flag 
03:13PM EST


 

Airport Tracker/Info


-or-


 

Live Flight TrackerFlight Track Log ✈ WEW1540 ✈ 06-May-2013 ✈ CYQR - CYYN

Flight Track Log - Related Links

Times and Time Zones

All times are in EDT time to prevent confusion due to time zone crossing. See the WEW1540 flight status page for this flight to view local times or setup timezone preferences in your user account.

Time Position Orientation Groundspeed Altitude Reporting Facility
EDT Latitude Longitude Course Direction KTS MPH feet Rate Location/Type
10:38AM 50.4000 -104.7000 298° West 90 104 2,200  Level Winnipeg Center
10:39AM 50.4167 -104.7500 298° West 100 115 3,200 900 Climbing Winnipeg Center
10:40AM 50.4167 -104.8000 270° West 110 127 4,100 840 Climbing Winnipeg Center
10:41AM 50.4167 -104.8500 270° West 110 127 4,900 780 Climbing Winnipeg Center
10:43AM 50.4823 -104.8500 North  Level FlightAware Approximate
10:44AM 50.4500 -105.0000 256° West 120 138 7,300  Level Winnipeg Center
10:46AM 50.4975 -104.9289 44° Northeast  Level FlightAware Approximate
10:46AM 50.4833 -105.1000 44° Northeast 150 173 8,000  Level Winnipeg Center
10:47AM 50.4833 -105.1833 270° West 160 184 8,100  Climbing Winnipeg Center
10:48AM 50.5167 -105.2333 316° Northwest 170 196 8,000 -60 Descending Winnipeg Center
10:49AM 50.5333 -105.3167 287° West 170 196 8,000  Level Winnipeg Center
10:50AM 50.6292 -105.1253 256° West  Level FlightAware Approximate
10:51AM 50.5240 -105.4188 270° West  Level Estimated
10:51AM 50.5500 -105.4667 270° West 170 196 8,100  Level Winnipeg Center
10:52AM 50.5833 -105.5167 316° Northwest 170 196 8,100  Level Winnipeg Center
10:54AM 50.5720 -105.6181 258° West  Level FlightAware Approximate
10:54AM 50.5500 -105.6667 258° West 170 196 8,100  Level Winnipeg Center
10:56AM 50.5378 -105.7681 259° West  Level FlightAware Approximate
11:03AM 50.4667 -106.2833 259° West 170 196 8,100  Level Winnipeg Center
11:04AM 50.4626 -106.3753 259° West  Level FlightAware Approximate
11:05AM 50.4530 -106.4511 259° West  Level FlightAware Approximate
11:05AM 50.4503 -106.4213 260° West  Level Estimated
11:07AM 50.4336 -106.6025 259° West  Level FlightAware Approximate
11:08AM 50.4238 -106.6782 259° West  Level FlightAware Approximate
11:09AM 50.4000 -106.7500 259° West 180 207 8,100  Level Winnipeg Center
11:10AM 50.4000 -106.8333 270° West 170 196 8,100  Level Winnipeg Center
11:11AM 50.4000 -106.9167 270° West 170 196 8,100  Level Winnipeg Center
11:12AM 50.3859 -106.9521 259° West  Level Estimated
11:12AM 50.3833 -106.9667 242° Southwest 170 196 8,100  Level Winnipeg Center
11:13AM 50.3765 -107.0279 259° West  Level Estimated
11:13AM 50.3833 -107.0333 270° West 170 196 7,800  Level Winnipeg Center
11:14AM 50.3671 -107.1035 259° West  Level Estimated
11:14AM 50.3667 -107.1167 253° West 180 207 7,300  Level Winnipeg Center
11:16AM 50.3532 -107.2508 253° West  Level FlightAware Approximate
11:23AM 50.2833 -107.6833 North  Level FlightAware Approximate
11:24AM 50.2919 -107.6906 North  Level Estimated
11:25AM 50.2919 -107.6906 North  Level Estimated
11:26AM 50.2919 -107.6906 North  Level Estimated
11:27AM 50.2919 -107.6906 North  Level Estimated
11:28AM 50.2919 -107.6906 North  Level Estimated
11:29AM 50.2919 -107.6906 North  Level Estimated
11:30AM 50.2919 -107.6906 North  Level Estimated
11:31AM 50.2919 -107.6906 North  Level Estimated
11:32AM 50.2919 -107.6906 North  Level Estimated
11:33AM 50.2919 -107.6906 North  Level Estimated
11:34AM 50.2919 -107.6906 North  Level Estimated
11:35AM 50.2919 -107.6906 North  Level Estimated
11:36AM 50.2919 -107.6906 North  Level Estimated
11:37AM 50.2919 -107.6906 North  Level Estimated
11:38AM 50.2919 -107.6906 North  Level Estimated
11:39AM 50.2919 -107.6906 North  Level Estimated